createdAt,value
2018-09-17T00:04:03.907Z,100629.05
2018-09-17T00:09:14.829Z,100629.72
2018-09-17T00:14:18.116Z,100626.34
2018-09-17T00:19:21.401Z,100625.17
2018-09-17T00:24:24.690Z,100627.63
2018-09-17T00:29:28.003Z,100627.44
2018-09-17T00:34:31.286Z,100624.09
2018-09-17T00:39:34.555Z,100631.30
2018-09-17T00:44:37.833Z,100629.16
2018-09-17T00:49:41.114Z,100631.59
2018-09-17T00:54:44.386Z,100632.55
2018-09-17T00:59:47.662Z,100632.23
2018-09-17T01:04:50.990Z,100636.51
2018-09-17T01:09:54.301Z,100629.75
2018-09-17T01:14:57.584Z,100629.15
2018-09-17T01:20:00.875Z,100637.11
2018-09-17T01:25:04.180Z,100635.00
2018-09-17T01:30:07.837Z,100642.36
2018-09-17T01:35:11.113Z,100643.97
2018-09-17T01:40:14.386Z,100643.05
2018-09-17T01:45:17.662Z,100656.53
2018-09-17T01:50:20.942Z,100653.41
2018-09-17T01:55:24.222Z,100646.63
2018-09-17T02:00:27.521Z,100643.69
2018-09-17T02:05:30.814Z,100642.93
2018-09-17T02:10:34.090Z,100639.36
2018-09-17T02:15:37.382Z,100640.19
2018-09-17T02:20:40.689Z,100638.61
2018-09-17T02:25:43.979Z,100640.59
2018-09-17T02:30:47.258Z,100636.23
2018-09-17T02:35:50.563Z,100636.69
2018-09-17T02:40:53.866Z,100643.66
2018-09-17T02:45:57.153Z,100654.39
2018-09-17T02:51:00.441Z,100644.73
2018-09-17T02:56:03.731Z,100637.50
2018-09-17T03:01:07.003Z,100633.39
2018-09-17T03:06:10.296Z,100632.95
2018-09-17T03:11:13.574Z,100644.63
2018-09-17T03:16:16.855Z,100648.33
2018-09-17T03:21:20.133Z,100647.73
2018-09-17T03:26:23.626Z,100659.49
2018-09-17T03:31:26.990Z,100665.77
2018-09-17T03:36:30.282Z,100671.58
2018-09-17T03:41:33.571Z,100680.51
2018-09-17T03:46:36.869Z,100678.93
2018-09-17T03:51:40.179Z,100674.42
2018-09-17T03:56:43.454Z,100673.23
2018-09-17T04:01:46.730Z,100654.77
2018-09-17T04:06:50.123Z,100650.59
2018-09-17T04:11:53.403Z,100643.72
2018-09-17T04:16:56.685Z,100640.75
2018-09-17T04:21:59.963Z,100641.16
2018-09-17T04:27:03.256Z,100640.78
2018-09-17T04:32:06.538Z,100644.35
2018-09-17T04:37:09.826Z,100638.17
2018-09-17T04:42:13.114Z,100642.36
2018-09-17T04:47:16.389Z,100653.34
2018-09-17T04:52:19.774Z,100655.45
2018-09-17T04:57:23.107Z,100658.64
2018-09-17T05:02:26.398Z,100659.77
2018-09-17T05:07:29.678Z,100659.03
2018-09-17T05:12:32.967Z,100668.89
2018-09-17T05:17:36.246Z,100674.91
2018-09-17T05:22:39.527Z,100682.85
2018-09-17T05:27:42.822Z,100680.02
2018-09-17T05:32:46.190Z,100676.89
2018-09-17T05:37:49.462Z,100681.66
2018-09-17T05:42:52.749Z,100688.42
2018-09-17T05:47:56.026Z,100689.59
2018-09-17T05:52:59.299Z,100680.77
2018-09-17T05:58:02.602Z,100678.00
2018-09-17T06:03:05.914Z,100683.12
2018-09-17T06:08:09.200Z,100686.03
2018-09-17T06:13:12.478Z,100685.84
2018-09-17T06:18:15.828Z,100678.77
2018-09-17T06:23:19.124Z,100678.11
2018-09-17T06:28:22.402Z,100668.23
2018-09-17T06:33:25.679Z,100681.48
2018-09-17T06:38:28.953Z,100672.16
2018-09-17T06:43:32.257Z,100672.34
2018-09-17T06:48:35.679Z,100677.23
2018-09-17T06:53:38.996Z,100688.33
2018-09-17T06:58:42.259Z,100695.41
2018-09-17T07:03:45.537Z,100696.10
2018-09-17T07:08:48.819Z,100693.27
2018-09-17T07:13:52.102Z,100693.56
2018-09-17T07:18:55.374Z,100690.24
2018-09-17T07:23:58.672Z,100679.48
2018-09-17T07:29:02.230Z,100673.90
2018-09-17T07:34:05.517Z,100666.54
2018-09-17T07:39:10.278Z,100675.31
2018-09-17T07:44:13.562Z,100680.64
2018-09-17T07:49:16.846Z,100667.48
2018-09-17T07:54:20.173Z,100662.41
2018-09-17T07:59:23.445Z,100665.16
2018-09-17T08:04:26.725Z,100660.10
2018-09-17T08:09:30.003Z,100656.81
2018-09-17T08:14:33.330Z,100650.79
2018-09-17T08:19:36.667Z,100654.17
2018-09-17T08:24:39.923Z,100646.59
2018-09-17T08:29:43.202Z,100653.38
2018-09-17T08:34:46.485Z,100644.41
2018-09-17T08:39:49.775Z,100639.20
2018-09-17T08:44:53.075Z,100641.56
2018-09-17T08:49:56.360Z,100650.56
2018-09-17T08:55:05.413Z,100649.69
2018-09-17T09:00:14.694Z,100647.82
2018-09-17T09:05:23.288Z,100645.77
2018-09-17T09:10:32.083Z,100645.22
2018-09-17T09:15:39.419Z,100644.92
2018-09-17T09:20:42.726Z,100635.58
2018-09-17T09:30:48.398Z,100628.27
2018-09-17T09:35:51.690Z,100633.37
2018-09-17T09:40:55.026Z,100631.34
2018-09-17T09:45:58.329Z,100619.24
2018-09-17T09:51:01.651Z,100622.28
2018-09-17T09:56:04.954Z,100620.84
2018-09-17T10:06:16.173Z,100630.20
2018-09-17T10:11:24.898Z,100627.61
2018-09-17T10:16:28.187Z,100629.55
2018-09-17T10:21:31.483Z,100631.47
2018-09-17T10:26:34.766Z,100615.34
2018-09-17T10:31:38.038Z,100610.31
2018-09-17T10:36:41.578Z,100611.66
2018-09-17T10:41:44.859Z,100606.27
2018-09-17T10:46:48.144Z,100600.89
2018-09-17T10:51:51.452Z,100595.52
2018-09-17T10:56:54.730Z,100589.87
2018-09-17T11:01:58.023Z,100580.14
2018-09-17T11:07:01.310Z,100572.95
2018-09-17T11:12:04.605Z,100573.47
2018-09-17T11:17:07.887Z,100571.05
2018-09-17T11:22:11.178Z,100577.78
2018-09-17T11:27:14.458Z,100567.59
2018-09-17T11:32:17.743Z,100559.98
2018-09-17T11:37:21.025Z,100553.98
2018-09-17T11:42:24.310Z,100552.78
2018-09-17T11:47:27.586Z,100549.91
2018-09-17T11:52:30.870Z,100543.92
2018-09-17T11:57:34.150Z,100531.92
2018-09-17T12:02:37.866Z,100525.15
2018-09-17T12:07:42.921Z,100521.55
2018-09-17T12:12:46.202Z,100512.36
2018-09-17T12:17:49.603Z,100524.61
2018-09-17T12:22:52.884Z,100513.48
2018-09-17T12:27:56.267Z,100505.40
2018-09-17T12:32:59.570Z,100513.11
2018-09-17T12:38:02.866Z,100509.57
2018-09-17T12:43:06.176Z,100510.09
2018-09-17T12:48:09.467Z,100503.91
2018-09-17T12:53:12.763Z,100509.42
2018-09-17T12:58:16.050Z,100496.45
2018-09-17T13:03:19.383Z,100497.41
2018-09-17T13:08:22.647Z,100488.64
2018-09-17T13:13:25.926Z,100482.53
2018-09-17T13:18:29.208Z,100479.74
2018-09-17T13:23:32.494Z,100481.86
2018-09-17T13:28:35.783Z,100472.91
2018-09-17T13:33:39.126Z,100471.36
2018-09-17T13:38:42.451Z,100467.36
2018-09-17T13:43:45.760Z,100466.84
2018-09-17T13:48:49.042Z,100457.53
2018-09-17T13:53:52.330Z,100457.96
2018-09-17T13:58:55.631Z,100456.69
2018-09-17T14:03:58.928Z,100456.50
2018-09-17T14:09:02.394Z,100446.59
2018-09-17T14:14:05.802Z,100450.59
2018-09-17T14:19:09.092Z,100452.25
2018-09-17T14:24:13.239Z,100448.14
2018-09-17T14:29:16.542Z,100444.59
2018-09-17T14:34:19.869Z,100438.57
2018-09-17T14:39:23.154Z,100427.25
2018-09-17T14:44:26.462Z,100420.30
2018-09-17T14:49:29.770Z,100411.68
2018-09-17T14:54:33.127Z,100417.43
2018-09-17T14:59:36.364Z,100405.86
2018-09-17T15:04:39.833Z,100413.08
2018-09-17T15:09:43.677Z,100408.72
2018-09-17T15:14:47.028Z,100408.47
2018-09-17T15:19:50.302Z,100410.54
2018-09-17T15:24:53.604Z,100407.93
2018-09-17T15:29:56.894Z,100399.40
2018-09-17T15:35:00.190Z,100396.80
2018-09-17T15:40:03.558Z,100395.22
2018-09-17T15:45:07.231Z,100393.93
2018-09-17T15:50:10.551Z,100395.14
2018-09-17T15:55:13.802Z,100384.61
2018-09-17T16:00:17.263Z,100386.36
2018-09-17T16:05:20.534Z,100384.28
2018-09-17T16:10:23.835Z,100379.49
2018-09-17T16:15:27.126Z,100377.06
2018-09-17T16:20:30.435Z,100370.88
2018-09-17T16:25:33.725Z,100365.74
2018-09-17T16:30:37.015Z,100365.13
2018-09-17T16:35:40.294Z,100361.38
2018-09-17T16:40:43.598Z,100358.17
2018-09-17T16:45:46.886Z,100364.34
2018-09-17T16:50:50.307Z,100364.17
2018-09-17T16:55:53.614Z,100363.39
2018-09-17T17:00:57.013Z,100365.39
2018-09-17T17:06:00.415Z,100363.99
2018-09-17T17:11:03.699Z,100371.97
2018-09-17T17:16:07.001Z,100376.00
2018-09-17T17:21:10.292Z,100383.58
2018-09-17T17:26:13.593Z,100378.78
2018-09-17T17:31:16.890Z,100386.53
2018-09-17T17:36:20.198Z,100386.09
2018-09-17T17:41:24.350Z,100391.67
2018-09-17T17:46:27.661Z,100390.20
2018-09-17T17:51:30.950Z,100397.05
2018-09-17T17:56:34.233Z,100395.77
2018-09-17T18:01:37.854Z,100401.95
2018-09-17T18:06:42.255Z,100399.84
2018-09-17T18:11:45.751Z,100404.45
2018-09-17T18:16:49.059Z,100404.73
2018-09-17T18:21:52.330Z,100401.95
2018-09-17T18:26:55.681Z,100407.95
2018-09-17T18:31:59.087Z,100410.13
2018-09-17T18:37:02.592Z,100403.52
2018-09-17T18:42:05.898Z,100409.09
2018-09-17T18:47:09.212Z,100409.77
2018-09-17T18:52:12.492Z,100412.66
2018-09-17T18:57:15.958Z,100409.41
2018-09-17T19:02:19.300Z,100406.55
2018-09-17T19:07:22.584Z,100411.16
2018-09-17T19:12:26.090Z,100400.98
2018-09-17T19:17:34.870Z,100404.38
2018-09-17T19:22:43.571Z,100401.84
2018-09-17T19:27:52.335Z,100400.63
2018-09-17T19:32:55.771Z,100401.77
2018-09-17T19:38:04.506Z,100392.81
2018-09-17T19:43:08.307Z,100393.84
2018-09-17T19:48:12.013Z,100400.20
2018-09-17T19:53:15.491Z,100396.45
2018-09-17T19:58:24.376Z,100397.24
2018-09-17T20:03:27.851Z,100399.35
2018-09-17T20:08:31.155Z,100398.31
2018-09-17T20:13:34.790Z,100396.39
2018-09-17T20:18:38.075Z,100393.05
2018-09-17T20:23:41.362Z,100398.11
2018-09-17T20:28:44.645Z,100398.36
2018-09-17T20:33:47.931Z,100400.81
2018-09-17T20:38:51.271Z,100394.11
2018-09-17T20:43:54.643Z,100392.17
2018-09-17T20:48:58.647Z,100383.75
2018-09-17T20:54:01.939Z,100385.21
2018-09-17T20:59:05.247Z,100384.27
2018-09-17T21:04:08.538Z,100378.78
2018-09-17T21:09:12.678Z,100382.77
2018-09-17T21:14:15.965Z,100381.84
2018-09-17T21:19:19.292Z,100380.09
2018-09-17T21:24:22.595Z,100382.95
2018-09-17T21:29:25.868Z,100384.52
2018-09-17T21:34:29.190Z,100381.72
2018-09-17T21:39:32.527Z,100381.72
2018-09-17T21:44:35.819Z,100371.02
2018-09-17T21:49:39.114Z,100368.08
2018-09-17T21:54:42.544Z,100375.89
2018-09-17T21:59:45.826Z,100368.58
2018-09-17T22:04:49.113Z,100372.42
2018-09-17T22:09:52.406Z,100368.67
2018-09-17T22:14:55.790Z,100368.67
2018-09-17T22:19:59.066Z,100368.71
2018-09-17T22:25:02.490Z,100363.14
2018-09-17T22:30:06.618Z,100370.10
2018-09-17T22:35:09.934Z,100362.18
2018-09-17T22:40:13.215Z,100357.14
2018-09-17T22:45:16.522Z,100360.28
2018-09-17T22:50:19.810Z,100356.46
2018-09-17T22:55:23.095Z,100355.92
2018-09-17T23:00:26.375Z,100356.10
2018-09-17T23:05:29.654Z,100356.34
2018-09-17T23:10:32.930Z,100349.81
2018-09-17T23:15:36.201Z,100349.67
2018-09-17T23:20:39.487Z,100348.52
2018-09-17T23:25:42.767Z,100352.52
2018-09-17T23:30:46.053Z,100345.98
2018-09-17T23:35:49.336Z,100342.23
2018-09-17T23:40:52.617Z,100338.70
2018-09-17T23:45:55.994Z,100332.78
2018-09-17T23:50:59.438Z,100332.60
2018-09-17T23:56:02.720Z,100334.41
